createdAt,value
2022-10-05T00:01:06.771Z,17.50
2022-10-05T00:03:37.066Z,14.67
2022-10-05T00:06:05.489Z,14.07
2022-10-05T00:08:35.390Z,13.07
2022-10-05T00:11:03.504Z,16.13
2022-10-05T00:13:32.263Z,9.30
2022-10-05T00:16:10.272Z,11.33
2022-10-05T00:18:39.473Z,9.77
2022-10-05T00:21:17.240Z,10.87
2022-10-05T00:23:45.251Z,10.57
2022-10-05T00:26:17.408Z,10.93
2022-10-05T00:28:45.296Z,11.33
2022-10-05T00:31:18.178Z,10.63
2022-10-05T00:33:46.318Z,11.67
2022-10-05T00:36:14.746Z,10.13
2022-10-05T00:38:43.592Z,12.20
2022-10-05T00:41:16.543Z,13.90
2022-10-05T00:44:05.084Z,13.03
2022-10-05T00:46:44.955Z,11.43
2022-10-05T00:49:28.654Z,10.40
2022-10-05T00:52:06.537Z,9.70
2022-10-05T00:54:43.500Z,9.83
2022-10-05T00:57:25.960Z,12.23
2022-10-05T01:00:05.826Z,9.73
2022-10-05T01:02:44.297Z,10.63
2022-10-05T01:05:16.780Z,9.80
2022-10-05T01:07:51.688Z,11.73
2022-10-05T01:10:28.115Z,10.20
2022-10-05T01:13:07.449Z,9.67
2022-10-05T01:15:43.030Z,9.10
2022-10-05T01:18:18.662Z,10.30
2022-10-05T01:20:57.915Z,10.70
2022-10-05T01:24:00.752Z,11.70
2022-10-05T01:26:44.679Z,11.63
2022-10-05T01:29:19.789Z,12.27
2022-10-05T01:31:57.643Z,9.53
2022-10-05T01:34:36.445Z,12.67
2022-10-05T01:37:13.874Z,9.67
2022-10-05T01:39:51.292Z,11.40
2022-10-05T01:42:30.195Z,12.13
2022-10-05T01:45:08.004Z,14.77
2022-10-05T01:47:43.732Z,15.87
2022-10-05T01:50:23.679Z,17.90
2022-10-05T01:52:59.441Z,15.03
2022-10-05T01:55:35.799Z,13.13
2022-10-05T01:58:19.995Z,13.87
2022-10-05T02:01:01.402Z,14.53
2022-10-05T02:03:36.738Z,12.60
2022-10-05T02:06:10.922Z,14.30
2022-10-05T02:08:44.686Z,17.80
2022-10-05T02:11:15.048Z,16.10
2022-10-05T02:13:45.515Z,14.20
2022-10-05T02:16:19.948Z,16.80
2022-10-05T02:18:51.808Z,17.80
2022-10-05T02:21:22.129Z,12.10
2022-10-05T02:23:54.207Z,13.70
2022-10-05T02:26:24.290Z,12.70
2022-10-05T02:28:56.427Z,17.57
2022-10-05T02:31:31.586Z,12.23
2022-10-05T02:34:25.913Z,12.63
2022-10-05T02:37:12.212Z,9.23
2022-10-05T02:39:48.433Z,10.80
2022-10-05T02:42:24.732Z,13.23
2022-10-05T02:45:00.142Z,10.50
2022-10-05T02:47:38.217Z,9.13
2022-10-05T02:50:12.661Z,8.60
2022-10-05T02:52:54.263Z,8.20
2022-10-05T02:55:33.656Z,11.63
2022-10-05T02:58:08.813Z,10.10
2022-10-05T03:00:43.788Z,9.50
2022-10-05T03:03:21.485Z,8.93
2022-10-05T03:05:54.776Z,12.10
2022-10-05T03:08:27.715Z,9.13
2022-10-05T03:11:05.594Z,14.73
2022-10-05T03:13:40.991Z,10.87
2022-10-05T03:16:36.932Z,10.73
2022-10-05T03:19:18.179Z,10.20
2022-10-05T03:21:57.472Z,11.00
2022-10-05T03:24:41.982Z,7.60
2022-10-05T03:27:18.538Z,8.90
2022-10-05T03:29:55.819Z,9.70
2022-10-05T03:32:33.284Z,8.43
2022-10-05T03:35:07.848Z,11.00
2022-10-05T03:37:45.053Z,11.90
2022-10-05T03:40:26.860Z,10.47
2022-10-05T03:43:06.897Z,9.27
2022-10-05T03:45:42.540Z,7.90
2022-10-05T03:48:15.818Z,10.27
2022-10-05T03:51:00.364Z,7.47
2022-10-05T03:53:33.155Z,13.60
2022-10-05T03:56:08.282Z,23.17
2022-10-05T03:58:42.035Z,17.13
2022-10-05T04:01:13.061Z,9.17
2022-10-05T04:03:45.604Z,11.17
2022-10-05T04:06:19.444Z,10.73
2022-10-05T04:08:53.857Z,11.57
2022-10-05T04:11:29.949Z,12.30
2022-10-05T04:14:02.612Z,15.10
2022-10-05T04:16:35.594Z,18.00
2022-10-05T04:19:11.563Z,13.90
2022-10-05T04:21:48.937Z,13.37
2022-10-05T04:24:23.478Z,10.90
2022-10-05T04:26:54.924Z,9.30
2022-10-05T04:29:33.485Z,9.47
2022-10-05T04:32:19.296Z,7.03
2022-10-05T04:34:57.014Z,9.27
2022-10-05T04:37:35.607Z,8.77
2022-10-05T04:40:18.974Z,9.97
2022-10-05T04:42:57.164Z,7.63
2022-10-05T04:45:38.133Z,9.33
2022-10-05T04:48:21.098Z,8.43
2022-10-05T04:51:01.407Z,8.00
2022-10-05T04:53:39.205Z,7.97
2022-10-05T04:56:12.994Z,6.83
2022-10-05T04:59:01.909Z,7.73
2022-10-05T05:01:48.036Z,9.83
2022-10-05T05:04:37.432Z,8.00
2022-10-05T05:07:20.332Z,6.87
2022-10-05T05:10:16.548Z,9.73
2022-10-05T05:12:53.506Z,13.60
2022-10-05T05:15:31.144Z,7.90
2022-10-05T05:18:23.229Z,6.90
2022-10-05T05:21:00.943Z,9.70
2022-10-05T05:23:37.912Z,8.07
2022-10-05T05:26:15.669Z,9.40
2022-10-05T05:28:49.636Z,9.37
2022-10-05T05:31:28.882Z,9.10
2022-10-05T05:34:05.395Z,6.93
2022-10-05T05:36:50.018Z,7.73
2022-10-05T05:39:30.313Z,14.10
2022-10-05T05:42:11.786Z,11.93
2022-10-05T05:44:46.328Z,8.57
2022-10-05T05:47:20.762Z,9.50
2022-10-05T05:50:13.814Z,8.40
2022-10-05T05:52:46.303Z,7.87
2022-10-05T05:55:19.861Z,8.43
2022-10-05T05:57:54.565Z,7.63
2022-10-05T06:00:24.891Z,8.73
2022-10-05T06:03:04.496Z,6.67
2022-10-05T06:05:37.267Z,9.50
2022-10-05T06:08:15.424Z,6.37
2022-10-05T06:10:49.367Z,7.63
2022-10-05T06:13:24.310Z,9.50
2022-10-05T06:15:56.939Z,10.00
2022-10-05T06:18:26.321Z,7.10
2022-10-05T06:21:01.777Z,5.97
2022-10-05T06:23:38.936Z,8.33
2022-10-05T06:26:18.912Z,5.90
2022-10-05T06:28:57.209Z,5.90
2022-10-05T06:31:36.526Z,6.77
2022-10-05T06:34:19.129Z,7.50
2022-10-05T06:36:51.889Z,6.80
2022-10-05T06:39:47.512Z,7.13
2022-10-05T06:42:39.476Z,6.80
2022-10-05T06:45:55.579Z,6.67
2022-10-05T06:48:54.489Z,6.63
2022-10-05T06:51:51.234Z,8.90
2022-10-05T06:54:43.281Z,8.33
2022-10-05T06:57:30.713Z,8.73
2022-10-05T07:00:03.822Z,6.57
2022-10-05T07:02:46.223Z,7.50
2022-10-05T07:05:43.953Z,6.70
2022-10-05T07:08:17.203Z,11.20
2022-10-05T07:11:00.561Z,17.30
2022-10-05T07:13:48.723Z,10.03
2022-10-05T07:16:30.162Z,9.73
2022-10-05T07:19:19.765Z,11.43
2022-10-05T07:22:01.843Z,8.53
2022-10-05T07:24:33.475Z,7.43
2022-10-05T07:27:11.678Z,8.00
2022-10-05T07:29:50.058Z,8.00
2022-10-05T07:32:33.518Z,6.87
2022-10-05T07:35:30.798Z,7.57
2022-10-05T07:38:05.516Z,9.70
2022-10-05T07:40:42.806Z,9.23
2022-10-05T07:43:23.035Z,8.43
2022-10-05T07:45:56.666Z,8.90
2022-10-05T07:48:33.137Z,6.70
2022-10-05T07:51:13.216Z,9.87
2022-10-05T07:53:48.509Z,10.60
2022-10-05T07:56:23.514Z,10.87
2022-10-05T07:59:01.658Z,7.63
2022-10-05T08:01:33.188Z,8.50
2022-10-05T08:04:10.784Z,7.10
2022-10-05T08:06:48.900Z,7.90
2022-10-05T08:09:37.397Z,9.97
2022-10-05T08:12:15.827Z,9.70
2022-10-05T08:14:51.974Z,8.87
2022-10-05T08:17:27.436Z,14.93
2022-10-05T08:20:05.665Z,15.03
2022-10-05T08:22:45.254Z,10.93
2022-10-05T08:25:23.544Z,10.83
2022-10-05T08:27:57.055Z,10.20
2022-10-05T08:30:25.509Z,10.80
2022-10-05T08:33:01.436Z,11.43
2022-10-05T08:35:33.984Z,9.30
2022-10-05T08:38:09.926Z,10.73
2022-10-05T08:41:11.264Z,13.77
2022-10-05T08:44:08.155Z,8.43
2022-10-05T08:47:02.330Z,8.07
2022-10-05T08:50:06.593Z,10.87
2022-10-05T08:52:49.778Z,8.80
2022-10-05T08:55:35.776Z,8.73
2022-10-05T08:58:47.915Z,10.33
2022-10-05T09:01:22.538Z,8.47
2022-10-05T09:04:31.273Z,13.93
2022-10-05T09:07:14.704Z,24.60
2022-10-05T09:10:23.540Z,11.13
2022-10-05T09:13:18.045Z,10.63
2022-10-05T09:16:09.283Z,15.60
2022-10-05T09:19:00.380Z,18.53
2022-10-05T09:21:40.188Z,9.40
2022-10-05T09:24:23.712Z,11.30
2022-10-05T09:27:01.572Z,10.70
2022-10-05T09:30:03.889Z,10.93
2022-10-05T09:33:09.180Z,11.90
2022-10-05T09:35:59.395Z,9.10
2022-10-05T09:38:38.880Z,9.33
2022-10-05T09:41:34.672Z,9.60
2022-10-05T09:44:23.065Z,8.10
2022-10-05T09:47:07.191Z,8.97
2022-10-05T09:50:02.094Z,11.17
2022-10-05T09:52:54.585Z,7.73
2022-10-05T09:55:41.498Z,9.37
2022-10-05T09:58:44.893Z,9.00
2022-10-05T10:01:41.554Z,9.93
2022-10-05T10:04:35.179Z,12.00
2022-10-05T10:07:18.987Z,9.70
2022-10-05T10:10:05.241Z,8.40
2022-10-05T10:12:48.633Z,8.73
2022-10-05T10:15:38.584Z,10.30
2022-10-05T10:18:21.200Z,9.17
2022-10-05T10:21:06.150Z,6.87
2022-10-05T10:24:01.548Z,7.60
2022-10-05T10:27:06.307Z,6.97
2022-10-05T10:29:51.158Z,19.07
2022-10-05T10:32:52.584Z,6.10
2022-10-05T10:35:32.108Z,5.43
2022-10-05T10:38:28.560Z,4.60
2022-10-05T10:41:32.284Z,5.13
2022-10-05T10:44:33.984Z,5.40
2022-10-05T10:47:47.068Z,4.70
2022-10-05T10:50:37.944Z,4.50
2022-10-05T10:53:19.364Z,6.27
2022-10-05T10:56:01.793Z,4.50
2022-10-05T10:58:54.109Z,4.80
2022-10-05T11:01:34.567Z,4.80
2022-10-05T11:04:41.207Z,4.50
2022-10-05T11:07:28.545Z,3.47
2022-10-05T11:10:21.328Z,6.43
2022-10-05T11:13:29.424Z,5.10
2022-10-05T11:16:21.937Z,4.97
2022-10-05T11:19:13.135Z,5.60
2022-10-05T11:21:56.083Z,7.97
2022-10-05T11:24:42.991Z,4.90
2022-10-05T11:30:21.357Z,7.43
2022-10-05T11:33:17.093Z,4.23
2022-10-05T11:36:21.335Z,5.90
2022-10-05T11:39:05.645Z,4.73
2022-10-05T11:41:56.755Z,5.47
2022-10-05T11:45:00.415Z,5.90
2022-10-05T11:47:32.630Z,6.37
2022-10-05T11:50:15.020Z,5.20
2022-10-05T11:52:48.876Z,6.47
2022-10-05T11:55:24.549Z,7.57
2022-10-05T11:57:56.951Z,8.10
2022-10-05T12:00:28.386Z,8.57
2022-10-05T12:03:29.892Z,4.87
2022-10-05T12:06:14.618Z,6.20
2022-10-05T12:08:55.927Z,5.53
2022-10-05T12:11:44.634Z,7.27
2022-10-05T12:14:25.319Z,6.23
2022-10-05T12:16:59.881Z,5.97
2022-10-05T12:19:33.837Z,6.67
2022-10-05T12:22:15.403Z,10.40
2022-10-05T12:25:02.554Z,6.23
2022-10-05T12:27:37.010Z,7.53
2022-10-05T12:30:14.760Z,5.73
2022-10-05T12:32:50.077Z,9.33
2022-10-05T12:35:36.506Z,6.80
2022-10-05T12:38:24.889Z,6.33
2022-10-05T12:41:05.300Z,6.07
2022-10-05T12:43:44.734Z,8.37
2022-10-05T12:46:22.588Z,12.87
2022-10-05T12:49:04.509Z,7.70
2022-10-05T12:51:39.962Z,6.60
2022-10-05T12:54:19.316Z,8.77
2022-10-05T12:56:54.559Z,10.90
2022-10-05T12:59:37.200Z,8.27
2022-10-05T13:02:18.271Z,7.90
2022-10-05T13:04:52.354Z,9.07
2022-10-05T13:07:42.170Z,7.07
2022-10-05T13:10:27.997Z,7.30
2022-10-05T13:13:16.009Z,9.87
2022-10-05T13:15:54.800Z,7.13
2022-10-05T13:18:29.424Z,6.13
2022-10-05T13:21:05.111Z,6.67
2022-10-05T13:23:47.001Z,7.90
2022-10-05T13:26:20.021Z,10.10
2022-10-05T13:28:58.878Z,5.93
2022-10-05T13:31:31.946Z,8.30
2022-10-05T13:34:09.043Z,8.13
2022-10-05T13:36:46.338Z,10.43
2022-10-05T13:39:30.656Z,6.57
2022-10-05T13:42:06.772Z,5.50
2022-10-05T13:44:42.353Z,5.60
2022-10-05T13:47:17.826Z,7.30
2022-10-05T13:49:51.829Z,6.40
2022-10-05T13:52:31.848Z,7.20
2022-10-05T13:55:05.981Z,8.13
2022-10-05T13:57:51.615Z,6.70
2022-10-05T14:00:25.656Z,7.90
2022-10-05T14:02:56.532Z,8.90
2022-10-05T14:05:26.802Z,11.93
2022-10-05T14:07:57.077Z,7.93
2022-10-05T14:10:38.145Z,7.30
2022-10-05T14:13:23.300Z,7.93
2022-10-05T14:16:05.384Z,8.27
2022-10-05T14:18:35.138Z,6.67
2022-10-05T14:21:16.682Z,7.60
2022-10-05T14:23:45.016Z,6.87
2022-10-05T14:26:31.288Z,10.20
2022-10-05T14:29:03.005Z,8.67
2022-10-05T14:31:36.871Z,8.77
2022-10-05T14:34:33.280Z,11.63
2022-10-05T14:37:07.153Z,13.40
2022-10-05T14:39:36.230Z,7.53
2022-10-05T14:42:14.962Z,10.63
2022-10-05T14:44:44.449Z,12.00
2022-10-05T14:47:22.640Z,12.67
2022-10-05T14:50:10.768Z,13.57
2022-10-05T14:52:41.104Z,13.73
2022-10-05T14:55:31.613Z,12.00
2022-10-05T14:58:13.835Z,12.67
2022-10-05T15:00:56.948Z,9.90
2022-10-05T15:03:45.753Z,12.80
2022-10-05T15:06:22.518Z,9.20
2022-10-05T15:09:19.241Z,9.83
2022-10-05T15:11:51.473Z,10.80
2022-10-05T15:14:23.924Z,7.37
2022-10-05T15:16:58.631Z,7.77
2022-10-05T15:19:36.457Z,10.10
2022-10-05T15:22:19.861Z,7.30
2022-10-05T15:25:00.919Z,7.97
2022-10-05T15:27:37.257Z,7.17
2022-10-05T15:30:10.669Z,5.87
2022-10-05T15:33:04.313Z,7.43
2022-10-05T15:35:48.025Z,7.57
2022-10-05T15:38:21.954Z,11.00
2022-10-05T15:40:58.972Z,6.47
2022-10-05T15:43:32.734Z,14.43
2022-10-05T15:46:10.491Z,6.90
2022-10-05T15:48:49.905Z,10.27
2022-10-05T15:51:37.423Z,14.63
2022-10-05T15:54:33.909Z,9.90
2022-10-05T15:57:09.015Z,9.40
2022-10-05T15:59:45.969Z,16.90
2022-10-05T16:02:20.615Z,8.10
2022-10-05T16:05:04.673Z,8.73
2022-10-05T16:07:57.805Z,10.53
2022-10-05T16:10:27.329Z,7.70
2022-10-05T16:13:13.197Z,5.20
2022-10-05T16:15:48.771Z,7.17
2022-10-05T16:18:55.745Z,6.57
2022-10-05T16:21:33.271Z,17.30
2022-10-05T16:24:18.440Z,14.93
2022-10-05T16:26:57.603Z,10.90
2022-10-05T16:29:37.574Z,6.70
2022-10-05T16:32:13.146Z,9.53
2022-10-05T16:34:56.909Z,13.77
2022-10-05T16:37:35.901Z,11.97
2022-10-05T16:40:14.015Z,8.83
2022-10-05T16:42:51.319Z,8.53
2022-10-05T16:45:30.572Z,8.87
2022-10-05T16:48:05.963Z,8.77
2022-10-05T16:50:39.405Z,6.47
2022-10-05T16:53:18.858Z,7.73
2022-10-05T16:55:49.756Z,7.90
2022-10-05T16:58:23.830Z,6.27
2022-10-05T17:01:09.549Z,8.73
2022-10-05T17:03:52.129Z,7.60
2022-10-05T17:06:55.725Z,8.80
2022-10-05T17:09:52.170Z,8.63
2022-10-05T17:12:35.762Z,8.43
2022-10-05T17:15:29.590Z,6.57
2022-10-05T17:18:12.714Z,8.60
2022-10-05T17:20:49.975Z,12.17
2022-10-05T17:23:29.339Z,8.10
2022-10-05T17:26:05.317Z,9.20
2022-10-05T17:28:58.685Z,7.93
2022-10-05T17:31:26.830Z,9.47
2022-10-05T17:34:27.455Z,7.90
2022-10-05T17:37:01.145Z,9.53
2022-10-05T17:39:50.039Z,8.73
2022-10-05T17:42:57.816Z,7.80
2022-10-05T17:45:54.078Z,9.17
2022-10-05T17:48:45.149Z,10.33
2022-10-05T17:51:36.973Z,10.20
2022-10-05T17:54:38.090Z,10.53
2022-10-05T17:57:24.535Z,10.70
2022-10-05T18:00:02.258Z,9.97
2022-10-05T18:02:42.915Z,10.23
2022-10-05T18:05:26.184Z,14.00
2022-10-05T18:08:26.787Z,12.67
2022-10-05T18:11:17.097Z,19.70
2022-10-05T18:13:50.271Z,15.60
2022-10-05T18:17:00.760Z,13.47
2022-10-05T18:19:32.406Z,13.20
2022-10-05T18:22:03.295Z,12.73
2022-10-05T18:24:56.031Z,12.50
2022-10-05T18:28:03.929Z,15.50
2022-10-05T18:30:39.763Z,13.93
2022-10-05T18:33:28.065Z,13.63
2022-10-05T18:36:11.932Z,14.23
2022-10-05T18:38:53.024Z,16.20
2022-10-05T18:41:32.421Z,18.67
2022-10-05T18:44:17.991Z,15.00
2022-10-05T18:46:51.438Z,20.60
2022-10-05T18:49:37.525Z,20.40
2022-10-05T18:52:13.454Z,17.13
2022-10-05T18:54:54.726Z,20.47
2022-10-05T18:57:51.291Z,22.20
2022-10-05T19:00:22.296Z,21.37
2022-10-05T19:02:53.533Z,24.40
2022-10-05T19:05:46.816Z,23.57
2022-10-05T19:08:26.639Z,23.53
2022-10-05T19:10:58.383Z,20.83
2022-10-05T19:13:41.462Z,21.60
2022-10-05T19:16:26.979Z,18.47
2022-10-05T19:19:10.158Z,21.40
2022-10-05T19:21:47.050Z,20.40
2022-10-05T19:24:42.797Z,18.80
2022-10-05T19:27:22.859Z,21.27
2022-10-05T19:30:13.545Z,20.73
2022-10-05T19:33:04.976Z,19.27
2022-10-05T19:35:43.938Z,18.90
2022-10-05T19:38:22.663Z,21.83
2022-10-05T19:40:59.016Z,20.30
2022-10-05T19:43:50.523Z,21.03
2022-10-05T19:46:30.778Z,20.63
2022-10-05T19:49:00.159Z,24.40
2022-10-05T19:51:31.201Z,19.33
2022-10-05T19:54:02.429Z,21.13
2022-10-05T19:56:34.881Z,20.73
2022-10-05T19:59:13.147Z,27.00
2022-10-05T20:01:45.754Z,16.60
2022-10-05T20:04:16.296Z,21.33
2022-10-05T20:06:44.184Z,16.50
2022-10-05T20:09:22.468Z,21.10
2022-10-05T20:11:53.011Z,18.40
2022-10-05T20:14:29.463Z,18.87
2022-10-05T20:17:32.359Z,15.37
2022-10-05T20:20:25.170Z,16.77
2022-10-05T20:22:52.988Z,13.57
2022-10-05T20:25:31.790Z,16.63
2022-10-05T20:28:02.365Z,21.20
2022-10-05T20:30:31.339Z,14.47
2022-10-05T20:33:01.438Z,15.77
2022-10-05T20:35:30.835Z,19.77
2022-10-05T20:38:00.281Z,14.03
2022-10-05T20:40:28.999Z,13.00
2022-10-05T20:42:57.399Z,32.13
2022-10-05T20:45:26.597Z,16.10
2022-10-05T20:47:54.961Z,18.80
2022-10-05T20:50:22.806Z,18.47
2022-10-05T20:52:50.768Z,16.23
2022-10-05T20:55:18.607Z,16.00
2022-10-05T20:57:47.287Z,15.63
2022-10-05T21:00:15.343Z,14.80
2022-10-05T21:02:44.518Z,14.53
2022-10-05T21:05:12.365Z,14.30
2022-10-05T21:07:40.830Z,11.00
2022-10-05T21:10:09.503Z,15.23
2022-10-05T21:12:37.628Z,16.40
2022-10-05T21:15:06.725Z,14.30
2022-10-05T21:17:36.292Z,15.90
2022-10-05T21:20:06.084Z,13.10
2022-10-05T21:22:36.263Z,15.03
2022-10-05T21:25:04.118Z,14.00
2022-10-05T21:27:32.036Z,13.27
2022-10-05T21:29:59.825Z,17.20
2022-10-05T21:32:27.659Z,14.67
2022-10-05T21:34:55.470Z,15.60
2022-10-05T21:37:24.601Z,16.80
2022-10-05T21:39:52.412Z,16.00
2022-10-05T21:42:20.206Z,13.83
2022-10-05T21:44:48.022Z,15.03
2022-10-05T21:47:15.852Z,12.43
2022-10-05T21:49:43.735Z,13.80
2022-10-05T21:52:11.553Z,13.57
2022-10-05T21:54:40.752Z,20.10
2022-10-05T21:57:13.011Z,13.53
2022-10-05T21:59:41.359Z,12.00
2022-10-05T22:02:09.140Z,12.93
2022-10-05T22:04:36.985Z,11.20
2022-10-05T22:07:16.660Z,11.27
2022-10-05T22:09:46.196Z,11.43
2022-10-05T22:12:14.016Z,13.23
2022-10-05T22:14:41.813Z,12.33
2022-10-05T22:17:14.982Z,12.53
2022-10-05T22:19:42.791Z,15.27
2022-10-05T22:22:12.043Z,11.53
2022-10-05T22:24:40.006Z,12.90
2022-10-05T22:27:09.430Z,12.20
2022-10-05T22:29:37.692Z,11.37
2022-10-05T22:32:05.646Z,12.73
2022-10-05T22:34:33.813Z,12.27
2022-10-05T22:37:02.269Z,15.30
2022-10-05T22:39:30.070Z,10.67
2022-10-05T22:41:58.096Z,13.30
2022-10-05T22:44:27.228Z,12.43
2022-10-05T22:46:55.041Z,11.60
2022-10-05T22:49:22.816Z,11.20
2022-10-05T22:51:51.069Z,15.73
2022-10-05T22:54:19.426Z,14.50
2022-10-05T22:56:47.395Z,12.27
2022-10-05T22:59:15.269Z,14.20
2022-10-05T23:01:44.408Z,11.13
2022-10-05T23:04:12.248Z,11.97
2022-10-05T23:06:40.040Z,11.60
2022-10-05T23:09:07.834Z,11.50
2022-10-05T23:11:35.637Z,12.13
2022-10-05T23:14:03.428Z,12.60
2022-10-05T23:16:31.507Z,12.13
2022-10-05T23:19:00.848Z,11.83
2022-10-05T23:21:31.215Z,12.87
2022-10-05T23:23:59.036Z,9.50
2022-10-05T23:26:27.067Z,10.07
2022-10-05T23:28:54.932Z,12.30
2022-10-05T23:31:25.518Z,13.53
2022-10-05T23:33:54.156Z,14.00
2022-10-05T23:36:24.656Z,12.47
2022-10-05T23:38:53.136Z,13.80
2022-10-05T23:41:21.923Z,14.10
2022-10-05T23:43:49.872Z,12.20
2022-10-05T23:46:18.673Z,11.80
2022-10-05T23:48:46.506Z,17.90
2022-10-05T23:51:15.513Z,11.33
2022-10-05T23:53:44.775Z,9.70
2022-10-05T23:56:13.196Z,11.23
2022-10-05T23:58:41.340Z,13.50
